Norton, Texas
Current Conditions -  °F | °C
As of 1:51 AM on Friday 31 Oct 2014 (Local Time) from KSJT Reporting Station
Overcast Overcast  
Wind Chill: 70°   Ceiling: 5500
Heat Index: 70°   Visibility: 10mi
Dew Point: 59°   Wind: 14mph
Humidity: 68%   Direction: 50°NE
Pressure: 30.22"   Gusts: NA
Location:  31.87°N, 100.13°W
Report Text: KSJT 310651Z AUTO 05012KT 10SM SCT047 OVC055 21/15 A3022 RMK AO2 SLP213 T02110150
Loading
Personal Weather Stations






























Interactive Weather Map
Tropical Storm Tracking
New forecast layout! Learn more

10-Day Weather Forecast

Advertisements
Track Severe Weather on mobile